sensor_id;sensor_type;location;lat;lon;timestamp;temperature;humidity
27368;DHT22;14839;48.106;11.618;2023-09-30T04:01:09;17.10;94.60
27368;DHT22;14839;48.106;11.618;2023-09-30T04:03:39;17.10;94.60
27368;DHT22;14839;48.106;11.618;2023-09-30T04:06:05;17.10;94.60
27368;DHT22;14839;48.106;11.618;2023-09-30T04:08:34;17.10;94.60
27368;DHT22;14839;48.106;11.618;2023-09-30T04:11:00;17.10;94.60
27368;DHT22;14839;48.106;11.618;2023-09-30T04:13:26;17.10;94.60
27368;DHT22;14839;48.106;11.618;2023-09-30T04:15:52;17.10;94.60
27368;DHT22;14839;48.106;11.618;2023-09-30T04:18:18;17.10;94.60
27368;DHT22;14839;48.106;11.618;2023-09-30T04:20:45;17.10;94.60
27368;DHT22;14839;48.106;11.618;2023-09-30T04:23:12;17.10;94.60
27368;DHT22;14839;48.106;11.618;2023-09-30T04:25:38;17.10;94.60
27368;DHT22;14839;48.106;11.618;2023-09-30T04:28:04;17.10;94.60
27368;DHT22;14839;48.106;11.618;2023-09-30T04:30:29;17.00;94.60
27368;DHT22;14839;48.106;11.618;2023-09-30T04:32:58;17.00;94.60
27368;DHT22;14839;48.106;11.618;2023-09-30T04:35:24;16.90;94.60
27368;DHT22;14839;48.106;11.618;2023-09-30T04:37:51;16.90;94.60
27368;DHT22;14839;48.106;11.618;2023-09-30T04:40:16;16.80;94.60
27368;DHT22;14839;48.106;11.618;2023-09-30T04:42:45;16.80;94.60
27368;DHT22;14839;48.106;11.618;2023-09-30T04:45:12;16.80;94.60
27368;DHT22;14839;48.106;11.618;2023-09-30T04:47:38;16.70;94.60
27368;DHT22;14839;48.106;11.618;2023-09-30T04:50:08;16.70;94.60
27368;DHT22;14839;48.106;11.618;2023-09-30T04:52:34;16.70;94.60
27368;DHT22;14839;48.106;11.618;2023-09-30T04:55:00;16.70;94.60
27368;DHT22;14839;48.106;11.618;2023-09-30T04:57:26;16.70;94.60
27368;DHT22;14839;48.106;11.618;2023-09-30T04:59:52;16.60;94.60
27368;DHT22;14839;48.106;11.618;2023-09-30T05:02:18;16.50;94.60
27368;DHT22;14839;48.106;11.618;2023-09-30T05:04:43;16.50;94.60
27368;DHT22;14839;48.106;11.618;2023-09-30T05:07:09;16.50;94.60
27368;DHT22;14839;48.106;11.618;2023-09-30T05:09:35;16.40;94.60
27368;DHT22;14839;48.106;11.618;2023-09-30T05:12:01;16.40;94.60
27368;DHT22;14839;48.106;11.618;2023-09-30T05:14:28;16.30;94.60
27368;DHT22;14839;48.106;11.618;2023-09-30T05:16:54;16.20;94.60
27368;DHT22;14839;48.106;11.618;2023-09-30T05:19:21;16.30;94.60
27368;DHT22;14839;48.106;11.618;2023-09-30T05:21:47;16.30;94.60
27368;DHT22;14839;48.106;11.618;2023-09-30T05:24:14;16.40;94.60
27368;DHT22;14839;48.106;11.618;2023-09-30T05:26:40;16.40;94.60
27368;DHT22;14839;48.106;11.618;2023-09-30T05:29:05;16.40;94.60
27368;DHT22;14839;48.106;11.618;2023-09-30T05:31:32;16.40;94.60
27368;DHT22;14839;48.106;11.618;2023-09-30T05:33:58;16.40;94.60
27368;DHT22;14839;48.106;11.618;2023-09-30T05:36:24;16.40;94.60
27368;DHT22;14839;48.106;11.618;2023-09-30T05:38:50;16.40;94.60
27368;DHT22;14839;48.106;11.618;2023-09-30T05:41:15;16.40;94.60
27368;DHT22;14839;48.106;11.618;2023-09-30T05:43:41;16.50;94.60
27368;DHT22;14839;48.106;11.618;2023-09-30T05:46:08;16.50;94.60
27368;DHT22;14839;48.106;11.618;2023-09-30T05:48:34;16.50;94.60
27368;DHT22;14839;48.106;11.618;2023-09-30T05:51:00;16.60;94.60
27368;DHT22;14839;48.106;11.618;2023-09-30T05:53:25;16.60;94.60
27368;DHT22;14839;48.106;11.618;2023-09-30T05:55:53;16.60;94.60
27368;DHT22;14839;48.106;11.618;2023-09-30T05:58:19;16.60;94.60
27368;DHT22;14839;48.106;11.618;2023-09-30T06:00:45;16.70;94.60
27368;DHT22;14839;48.106;11.618;2023-09-30T06:03:11;16.70;94.60
27368;DHT22;14839;48.106;11.618;2023-09-30T06:05:40;16.70;94.60
27368;DHT22;14839;48.106;11.618;2023-09-30T06:08:07;16.70;94.60
27368;DHT22;14839;48.106;11.618;2023-09-30T06:10:36;16.80;94.60
27368;DHT22;14839;48.106;11.618;2023-09-30T06:13:03;16.80;94.60
27368;DHT22;14839;48.106;11.618;2023-09-30T06:15:29;16.90;94.60
27368;DHT22;14839;48.106;11.618;2023-09-30T06:17:57;17.00;94.60
27368;DHT22;14839;48.106;11.618;2023-09-30T06:20:23;17.00;94.60
27368;DHT22;14839;48.106;11.618;2023-09-30T06:22:52;17.10;94.60
27368;DHT22;14839;48.106;11.618;2023-09-30T06:25:21;17.20;94.60
27368;DHT22;14839;48.106;11.618;2023-09-30T06:27:48;17.30;94.60
27368;DHT22;14839;48.106;11.618;2023-09-30T06:30:15;17.30;94.60
27368;DHT22;14839;48.106;11.618;2023-09-30T06:32:42;17.40;94.60
27368;DHT22;14839;48.106;11.618;2023-09-30T06:35:08;17.40;94.60
27368;DHT22;14839;48.106;11.618;2023-09-30T06:37:44;17.50;94.60
27368;DHT22;14839;48.106;11.618;2023-09-30T06:40:11;17.70;94.60
27368;DHT22;14839;48.106;11.618;2023-09-30T06:42:39;17.80;94.60
27368;DHT22;14839;48.106;11.618;2023-09-30T06:45:06;18.10;94.60
27368;DHT22;14839;48.106;11.618;2023-09-30T06:47:35;18.30;93.30
27368;DHT22;14839;48.106;11.618;2023-09-30T06:50:03;18.50;92.90
27368;DHT22;14839;48.106;11.618;2023-09-30T06:52:34;18.60;92.10
27368;DHT22;14839;48.106;11.618;2023-09-30T06:55:01;18.60;92.20
27368;DHT22;14839;48.106;11.618;2023-09-30T06:57:27;18.50;92.30
27368;DHT22;14839;48.106;11.618;2023-09-30T06:59:52;18.40;92.30
27368;DHT22;14839;48.106;11.618;2023-09-30T07:02:18;18.40;92.90
27368;DHT22;14839;48.106;11.618;2023-09-30T07:04:43;18.50;92.70
27368;DHT22;14839;48.106;11.618;2023-09-30T07:07:09;18.40;92.30
27368;DHT22;14839;48.106;11.618;2023-09-30T07:09:35;18.30;92.30
27368;DHT22;14839;48.106;11.618;2023-09-30T07:12:01;18.20;92.50
27368;DHT22;14839;48.106;11.618;2023-09-30T07:14:27;18.20;92.70
27368;DHT22;14839;48.106;11.618;2023-09-30T07:16:52;18.20;92.90
27368;DHT22;14839;48.106;11.618;2023-09-30T07:19:18;18.20;92.70
27368;DHT22;14839;48.106;11.618;2023-09-30T07:21:44;18.20;93.10
27368;DHT22;14839;48.106;11.618;2023-09-30T07:24:11;18.20;92.60
27368;DHT22;14839;48.106;11.618;2023-09-30T07:26:37;18.30;92.80
27368;DHT22;14839;48.106;11.618;2023-09-30T07:29:03;18.30;93.00
27368;DHT22;14839;48.106;11.618;2023-09-30T07:31:34;18.40;93.20
27368;DHT22;14839;48.106;11.618;2023-09-30T07:34:00;18.40;92.50
27368;DHT22;14839;48.106;11.618;2023-09-30T07:36:25;18.40;92.00
27368;DHT22;14839;48.106;11.618;2023-09-30T07:38:51;18.40;91.90
27368;DHT22;14839;48.106;11.618;2023-09-30T07:41:16;18.40;92.50
27368;DHT22;14839;48.106;11.618;2023-09-30T07:43:43;18.30;92.70
27368;DHT22;14839;48.106;11.618;2023-09-30T07:46:08;18.20;93.20
27368;DHT22;14839;48.106;11.618;2023-09-30T07:48:34;18.10;93.20
27368;DHT22;14839;48.106;11.618;2023-09-30T07:51:01;18.20;92.90
27368;DHT22;14839;48.106;11.618;2023-09-30T07:53:27;18.20;93.40
27368;DHT22;14839;48.106;11.618;2023-09-30T07:55:53;18.30;93.30
27368;DHT22;14839;48.106;11.618;2023-09-30T07:58:20;18.50;92.80
27368;DHT22;14839;48.106;11.618;2023-09-30T08:00:45;18.80;93.00
27368;DHT22;14839;48.106;11.618;2023-09-30T08:03:11;19.10;91.50
27368;DHT22;14839;48.106;11.618;2023-09-30T08:05:37;19.10;90.90
27368;DHT22;14839;48.106;11.618;2023-09-30T08:08:03;19.20;90.60
27368;DHT22;14839;48.106;11.618;2023-09-30T08:10:30;19.20;90.20
27368;DHT22;14839;48.106;11.618;2023-09-30T08:12:57;19.20;90.80
27368;DHT22;14839;48.106;11.618;2023-09-30T08:15:24;19.30;89.80
27368;DHT22;14839;48.106;11.618;2023-09-30T08:17:50;19.40;89.90
27368;DHT22;14839;48.106;11.618;2023-09-30T08:20:16;19.70;89.30
27368;DHT22;14839;48.106;11.618;2023-09-30T08:22:41;20.00;88.40
27368;DHT22;14839;48.106;11.618;2023-09-30T08:25:07;20.20;87.80
27368;DHT22;14839;48.106;11.618;2023-09-30T08:27:33;20.20;87.80
27368;DHT22;14839;48.106;11.618;2023-09-30T08:30:00;20.20;87.80
27368;DHT22;14839;48.106;11.618;2023-09-30T08:32:26;20.20;87.20
27368;DHT22;14839;48.106;11.618;2023-09-30T08:34:52;20.30;86.80
27368;DHT22;14839;48.106;11.618;2023-09-30T08:37:17;20.80;85.70
27368;DHT22;14839;48.106;11.618;2023-09-30T08:39:43;21.30;83.60
27368;DHT22;14839;48.106;11.618;2023-09-30T08:42:12;21.50;81.10
27368;DHT22;14839;48.106;11.618;2023-09-30T08:44:38;21.40;81.70
27368;DHT22;14839;48.106;11.618;2023-09-30T08:47:06;21.40;80.80
27368;DHT22;14839;48.106;11.618;2023-09-30T08:49:40;21.30;81.50
27368;DHT22;14839;48.106;11.618;2023-09-30T08:52:09;21.10;82.10
27368;DHT22;14839;48.106;11.618;2023-09-30T08:54:35;20.80;82.60
27368;DHT22;14839;48.106;11.618;2023-09-30T08:57:01;20.60;84.10
27368;DHT22;14839;48.106;11.618;2023-09-30T08:59:31;20.50;84.20
27368;DHT22;14839;48.106;11.618;2023-09-30T09:01:57;20.30;86.30
27368;DHT22;14839;48.106;11.618;2023-09-30T09:04:24;20.30;84.20
27368;DHT22;14839;48.106;11.618;2023-09-30T09:06:49;20.20;85.00
27368;DHT22;14839;48.106;11.618;2023-09-30T09:09:16;20.30;86.00
27368;DHT22;14839;48.106;11.618;2023-09-30T09:11:43;20.50;86.90
27368;DHT22;14839;48.106;11.618;2023-09-30T09:14:09;21.00;82.60
27368;DHT22;14839;48.106;11.618;2023-09-30T09:16:35;21.60;82.00
27368;DHT22;14839;48.106;11.618;2023-09-30T09:19:13;22.30;78.40
27368;DHT22;14839;48.106;11.618;2023-09-30T09:21:56;22.80;77.60
27368;DHT22;14839;48.106;11.618;2023-09-30T09:27:10;23.00;76.30
27368;DHT22;14839;48.106;11.618;2023-09-30T09:29:38;23.30;74.90
27368;DHT22;14839;48.106;11.618;2023-09-30T09:32:14;23.30;72.50
27368;DHT22;14839;48.106;11.618;2023-09-30T09:34:44;23.00;73.00
27368;DHT22;14839;48.106;11.618;2023-09-30T09:37:18;22.70;73.70
27368;DHT22;14839;48.106;11.618;2023-09-30T09:39:55;22.20;75.10
27368;DHT22;14839;48.106;11.618;2023-09-30T09:42:30;21.70;78.20
27368;DHT22;14839;48.106;11.618;2023-09-30T09:45:03;21.30;79.10
27368;DHT22;14839;48.106;11.618;2023-09-30T09:47:32;21.00;80.20
27368;DHT22;14839;48.106;11.618;2023-09-30T09:49:59;20.80;82.00
27368;DHT22;14839;48.106;11.618;2023-09-30T09:52:25;20.80;80.20
27368;DHT22;14839;48.106;11.618;2023-09-30T09:54:51;20.90;81.10
27368;DHT22;14839;48.106;11.618;2023-09-30T09:57:18;21.10;80.30
27368;DHT22;14839;48.106;11.618;2023-09-30T09:59:46;21.60;78.40
27368;DHT22;14839;48.106;11.618;2023-09-30T10:02:14;22.00;76.40
27368;DHT22;14839;48.106;11.618;2023-09-30T10:04:44;22.20;72.20
27368;DHT22;14839;48.106;11.618;2023-09-30T10:07:22;22.50;75.20
27368;DHT22;14839;48.106;11.618;2023-09-30T10:09:51;22.80;71.90
27368;DHT22;14839;48.106;11.618;2023-09-30T10:12:18;23.10;70.30
27368;DHT22;14839;48.106;11.618;2023-09-30T10:14:44;23.10;69.10
27368;DHT22;14839;48.106;11.618;2023-09-30T10:17:10;23.00;73.00
27368;DHT22;14839;48.106;11.618;2023-09-30T10:20:03;23.10;73.40
27368;DHT22;14839;48.106;11.618;2023-09-30T10:23:29;23.20;72.70
27368;DHT22;14839;48.106;11.618;2023-09-30T10:25:33;22.90;70.10
27368;DHT22;14839;48.106;11.618;2023-09-30T10:28:00;23.10;70.60
27368;DHT22;14839;48.106;11.618;2023-09-30T10:31:11;23.10;72.70
27368;DHT22;14839;48.106;11.618;2023-09-30T10:36:39;23.00;72.50
27368;DHT22;14839;48.106;11.618;2023-09-30T10:39:11;23.10;69.70
27368;DHT22;14839;48.106;11.618;2023-09-30T10:46:51;22.50;71.60
27368;DHT22;14839;48.106;11.618;2023-09-30T10:51:50;22.30;74.80
27368;DHT22;14839;48.106;11.618;2023-09-30T10:54:22;22.30;73.10
27368;DHT22;14839;48.106;11.618;2023-09-30T10:56:49;22.40;75.20
27368;DHT22;14839;48.106;11.618;2023-09-30T10:59:25;22.40;72.50
27368;DHT22;14839;48.106;11.618;2023-09-30T11:01:52;22.40;72.50
27368;DHT22;14839;48.106;11.618;2023-09-30T11:04:18;22.30;72.70
27368;DHT22;14839;48.106;11.618;2023-09-30T11:06:45;22.30;73.30
27368;DHT22;14839;48.106;11.618;2023-09-30T11:09:15;22.20;74.50
27368;DHT22;14839;48.106;11.618;2023-09-30T11:11:43;22.20;72.50
27368;DHT22;14839;48.106;11.618;2023-09-30T11:14:28;22.30;70.90
27368;DHT22;14839;48.106;11.618;2023-09-30T11:16:59;22.50;72.80
27368;DHT22;14839;48.106;11.618;2023-09-30T11:19:34;22.60;70.10
27368;DHT22;14839;48.106;11.618;2023-09-30T11:22:00;22.60;71.80
27368;DHT22;14839;48.106;11.618;2023-09-30T11:24:25;22.60;68.80
27368;DHT22;14839;48.106;11.618;2023-09-30T11:26:55;22.60;67.40
27368;DHT22;14839;48.106;11.618;2023-09-30T11:29:21;22.60;70.90
27368;DHT22;14839;48.106;11.618;2023-09-30T11:31:48;22.70;71.50
27368;DHT22;14839;48.106;11.618;2023-09-30T11:34:16;22.80;71.30
27368;DHT22;14839;48.106;11.618;2023-09-30T11:36:51;22.90;70.70
27368;DHT22;14839;48.106;11.618;2023-09-30T11:39:27;22.90;68.90
27368;DHT22;14839;48.106;11.618;2023-09-30T11:41:54;22.90;69.50
27368;DHT22;14839;48.106;11.618;2023-09-30T11:44:23;22.80;67.90
27368;DHT22;14839;48.106;11.618;2023-09-30T11:46:50;22.50;67.40
27368;DHT22;14839;48.106;11.618;2023-09-30T11:49:37;22.30;69.70
27368;DHT22;14839;48.106;11.618;2023-09-30T11:52:13;22.00;69.20
27368;DHT22;14839;48.106;11.618;2023-09-30T11:54:42;21.80;70.30
27368;DHT22;14839;48.106;11.618;2023-09-30T11:57:11;21.70;71.00
27368;DHT22;14839;48.106;11.618;2023-09-30T11:59:37;21.70;71.00
27368;DHT22;14839;48.106;11.618;2023-09-30T12:02:04;21.70;72.10
27368;DHT22;14839;48.106;11.618;2023-09-30T12:04:34;21.70;70.00
27368;DHT22;14839;48.106;11.618;2023-09-30T12:07:00;21.70;70.00
27368;DHT22;14839;48.106;11.618;2023-09-30T12:09:25;21.70;67.60
27368;DHT22;14839;48.106;11.618;2023-09-30T12:11:52;21.90;67.30
27368;DHT22;14839;48.106;11.618;2023-09-30T12:14:20;22.00;68.00
27368;DHT22;14839;48.106;11.618;2023-09-30T12:16:46;22.20;68.80
27368;DHT22;14839;48.106;11.618;2023-09-30T12:19:14;22.40;67.70
27368;DHT22;14839;48.106;11.618;2023-09-30T12:21:41;22.40;67.30
27368;DHT22;14839;48.106;11.618;2023-09-30T12:24:08;22.40;65.30
27368;DHT22;14839;48.106;11.618;2023-09-30T12:26:35;22.20;67.90
27368;DHT22;14839;48.106;11.618;2023-09-30T12:29:01;22.10;69.20
27368;DHT22;14839;48.106;11.618;2023-09-30T12:31:27;22.00;69.40
27368;DHT22;14839;48.106;11.618;2023-09-30T12:33:53;22.00;70.70
27368;DHT22;14839;48.106;11.618;2023-09-30T12:36:19;22.00;71.30
27368;DHT22;14839;48.106;11.618;2023-09-30T12:38:45;21.80;69.50
27368;DHT22;14839;48.106;11.618;2023-09-30T12:41:11;22.00;69.80
27368;DHT22;14839;48.106;11.618;2023-09-30T12:43:37;22.10;70.10
27368;DHT22;14839;48.106;11.618;2023-09-30T12:46:03;22.30;69.10
27368;DHT22;14839;48.106;11.618;2023-09-30T12:48:30;22.20;70.40
27368;DHT22;14839;48.106;11.618;2023-09-30T12:50:55;22.30;70.00
27368;DHT22;14839;48.106;11.618;2023-09-30T12:53:21;22.40;70.60
27368;DHT22;14839;48.106;11.618;2023-09-30T12:55:47;22.50;69.70
27368;DHT22;14839;48.106;11.618;2023-09-30T12:58:12;22.70;69.40
27368;DHT22;14839;48.106;11.618;2023-09-30T13:00:38;22.60;69.20
27368;DHT22;14839;48.106;11.618;2023-09-30T13:03:04;22.30;68.60
27368;DHT22;14839;48.106;11.618;2023-09-30T13:05:30;22.30;69.20
27368;DHT22;14839;48.106;11.618;2023-09-30T13:07:56;22.20;70.10
27368;DHT22;14839;48.106;11.618;2023-09-30T13:10:23;22.50;68.60
27368;DHT22;14839;48.106;11.618;2023-09-30T13:12:48;22.40;68.80
27368;DHT22;14839;48.106;11.618;2023-09-30T13:15:15;22.50;69.70
27368;DHT22;14839;48.106;11.618;2023-09-30T13:17:42;22.60;68.50
27368;DHT22;14839;48.106;11.618;2023-09-30T13:20:09;22.70;68.30
27368;DHT22;14839;48.106;11.618;2023-09-30T13:22:35;22.80;64.40
27368;DHT22;14839;48.106;11.618;2023-09-30T13:25:05;22.90;62.60
27368;DHT22;14839;48.106;11.618;2023-09-30T13:27:31;22.90;65.00
27368;DHT22;14839;48.106;11.618;2023-09-30T13:29:58;22.90;65.80
27368;DHT22;14839;48.106;11.618;2023-09-30T13:32:24;22.90;64.60
27368;DHT22;14839;48.106;11.618;2023-09-30T13:34:53;22.80;65.20
27368;DHT22;14839;48.106;11.618;2023-09-30T13:37:19;22.70;65.80
27368;DHT22;14839;48.106;11.618;2023-09-30T13:39:45;22.70;66.20
27368;DHT22;14839;48.106;11.618;2023-09-30T13:42:11;22.60;67.40
27368;DHT22;14839;48.106;11.618;2023-09-30T13:44:36;22.60;68.00
27368;DHT22;14839;48.106;11.618;2023-09-30T13:47:02;22.40;66.50
27368;DHT22;14839;48.106;11.618;2023-09-30T13:49:28;22.00;66.40
27368;DHT22;14839;48.106;11.618;2023-09-30T13:51:55;22.00;70.30
27368;DHT22;14839;48.106;11.618;2023-09-30T13:54:21;22.00;69.40
27368;DHT22;14839;48.106;11.618;2023-09-30T13:56:47;21.90;73.00
27368;DHT22;14839;48.106;11.618;2023-09-30T13:59:13;21.90;71.80
27368;DHT22;14839;48.106;11.618;2023-09-30T14:01:39;21.90;73.10
27368;DHT22;14839;48.106;11.618;2023-09-30T14:04:07;21.90;73.70
27368;DHT22;14839;48.106;11.618;2023-09-30T14:06:32;22.00;71.50
27368;DHT22;14839;48.106;11.618;2023-09-30T14:08:58;21.80;69.10
27368;DHT22;14839;48.106;11.618;2023-09-30T14:11:24;21.70;71.20
27368;DHT22;14839;48.106;11.618;2023-09-30T14:13:50;21.70;71.20
27368;DHT22;14839;48.106;11.618;2023-09-30T14:16:15;21.50;71.30
27368;DHT22;14839;48.106;11.618;2023-09-30T14:18:41;21.50;73.30
27368;DHT22;14839;48.106;11.618;2023-09-30T14:21:08;21.50;73.40
27368;DHT22;14839;48.106;11.618;2023-09-30T14:23:33;21.40;70.60
27368;DHT22;14839;48.106;11.618;2023-09-30T14:25:59;21.40;70.70
27368;DHT22;14839;48.106;11.618;2023-09-30T14:28:26;21.40;72.40
27368;DHT22;14839;48.106;11.618;2023-09-30T14:30:51;21.30;72.10
27368;DHT22;14839;48.106;11.618;2023-09-30T14:33:17;21.30;73.30
27368;DHT22;14839;48.106;11.618;2023-09-30T14:35:45;21.20;72.10
27368;DHT22;14839;48.106;11.618;2023-09-30T14:38:10;21.30;72.50
27368;DHT22;14839;48.106;11.618;2023-09-30T14:40:39;21.20;72.20
27368;DHT22;14839;48.106;11.618;2023-09-30T14:43:06;21.10;74.20
27368;DHT22;14839;48.106;11.618;2023-09-30T14:45:31;21.10;74.20
27368;DHT22;14839;48.106;11.618;2023-09-30T14:47:57;21.00;74.30
27368;DHT22;14839;48.106;11.618;2023-09-30T14:50:23;21.00;74.30
27368;DHT22;14839;48.106;11.618;2023-09-30T14:52:48;21.00;73.30
27368;DHT22;14839;48.106;11.618;2023-09-30T14:55:14;21.10;73.70
27368;DHT22;14839;48.106;11.618;2023-09-30T14:57:41;21.10;73.90
27368;DHT22;14839;48.106;11.618;2023-09-30T15:00:07;21.10;72.50
27368;DHT22;14839;48.106;11.618;2023-09-30T15:02:33;21.00;73.40
27368;DHT22;14839;48.106;11.618;2023-09-30T15:04:59;21.10;73.90
27368;DHT22;14839;48.106;11.618;2023-09-30T15:07:25;21.10;74.50
27368;DHT22;14839;48.106;11.618;2023-09-30T15:09:50;21.10;72.80
27368;DHT22;14839;48.106;11.618;2023-09-30T15:12:17;21.10;71.50
27368;DHT22;14839;48.106;11.618;2023-09-30T15:14:43;21.10;72.50
27368;DHT22;14839;48.106;11.618;2023-09-30T15:17:10;21.10;73.40
27368;DHT22;14839;48.106;11.618;2023-09-30T15:19:36;21.10;73.90
27368;DHT22;14839;48.106;11.618;2023-09-30T15:22:01;21.00;73.30
27368;DHT22;14839;48.106;11.618;2023-09-30T15:24:27;21.00;75.70
27368;DHT22;14839;48.106;11.618;2023-09-30T15:26:53;21.00;73.70
27368;DHT22;14839;48.106;11.618;2023-09-30T15:29:18;21.00;74.30
27368;DHT22;14839;48.106;11.618;2023-09-30T15:31:44;20.90;73.90
27368;DHT22;14839;48.106;11.618;2023-09-30T15:34:09;20.90;72.70
27368;DHT22;14839;48.106;11.618;2023-09-30T15:36:37;20.90;72.70
27368;DHT22;14839;48.106;11.618;2023-09-30T15:39:02;20.80;73.60
27368;DHT22;14839;48.106;11.618;2023-09-30T15:41:28;20.80;73.90
27368;DHT22;14839;48.106;11.618;2023-09-30T15:43:55;20.70;74.30
27368;DHT22;14839;48.106;11.618;2023-09-30T15:46:23;20.70;73.40
27368;DHT22;14839;48.106;11.618;2023-09-30T15:48:48;20.60;74.60
27368;DHT22;14839;48.106;11.618;2023-09-30T15:51:14;20.60;75.10
27368;DHT22;14839;48.106;11.618;2023-09-30T15:53:40;20.50;76.60
27368;DHT22;14839;48.106;11.618;2023-09-30T15:56:06;20.50;77.90
27368;DHT22;14839;48.106;11.618;2023-09-30T15:58:32;20.40;78.40
27368;DHT22;14839;48.106;11.618;2023-09-30T16:01:15;20.30;77.50
27368;DHT22;14839;48.106;11.618;2023-09-30T16:03:41;20.20;76.40
27368;DHT22;14839;48.106;11.618;2023-09-30T16:06:09;19.90;76.60
27368;DHT22;14839;48.106;11.618;2023-09-30T16:08:35;19.80;77.50
27368;DHT22;14839;48.106;11.618;2023-09-30T16:11:00;19.80;78.20
27368;DHT22;14839;48.106;11.618;2023-09-30T16:13:26;19.70;79.10
27368;DHT22;14839;48.106;11.618;2023-09-30T16:15:53;19.70;80.20
27368;DHT22;14839;48.106;11.618;2023-09-30T16:18:18;19.60;81.10
27368;DHT22;14839;48.106;11.618;2023-09-30T16:20:44;19.60;81.70
27368;DHT22;14839;48.106;11.618;2023-09-30T16:23:10;19.50;81.50
27368;DHT22;14839;48.106;11.618;2023-09-30T16:25:36;19.40;80.30
27368;DHT22;14839;48.106;11.618;2023-09-30T16:28:01;19.40;82.10
27368;DHT22;14839;48.106;11.618;2023-09-30T16:30:27;19.40;83.30
27368;DHT22;14839;48.106;11.618;2023-09-30T16:32:54;19.40;83.90
27368;DHT22;14839;48.106;11.618;2023-09-30T16:35:20;19.40;82.90
27368;DHT22;14839;48.106;11.618;2023-09-30T16:37:45;19.40;82.30
27368;DHT22;14839;48.106;11.618;2023-09-30T16:40:11;19.30;83.20
27368;DHT22;14839;48.106;11.618;2023-09-30T16:42:36;19.30;83.00
27368;DHT22;14839;48.106;11.618;2023-09-30T16:45:02;19.20;82.70
27368;DHT22;14839;48.106;11.618;2023-09-30T16:47:28;19.20;83.00
27368;DHT22;14839;48.106;11.618;2023-09-30T16:49:54;19.10;83.30
27368;DHT22;14839;48.106;11.618;2023-09-30T16:52:20;19.00;83.00
27368;DHT22;14839;48.106;11.618;2023-09-30T16:54:45;19.00;83.50
27368;DHT22;14839;48.106;11.618;2023-09-30T16:57:11;18.80;84.10
27368;DHT22;14839;48.106;11.618;2023-09-30T16:59:59;18.70;84.10
27368;DHT22;14839;48.106;11.618;2023-09-30T17:02:25;18.60;84.20
27368;DHT22;14839;48.106;11.618;2023-09-30T17:04:51;18.50;84.80
27368;DHT22;14839;48.106;11.618;2023-09-30T17:07:18;18.40;85.40
27368;DHT22;14839;48.106;11.618;2023-09-30T17:09:44;18.40;85.90
27368;DHT22;14839;48.106;11.618;2023-09-30T17:12:12;18.30;85.90
27368;DHT22;14839;48.106;11.618;2023-09-30T17:14:38;18.20;86.30
27368;DHT22;14839;48.106;11.618;2023-09-30T17:17:04;18.10;86.60
27368;DHT22;14839;48.106;11.618;2023-09-30T17:19:30;18.00;86.60
27368;DHT22;14839;48.106;11.618;2023-09-30T17:21:57;17.90;87.20
27368;DHT22;14839;48.106;11.618;2023-09-30T17:24:23;17.90;87.20
27368;DHT22;14839;48.106;11.618;2023-09-30T17:26:48;17.80;87.40
27368;DHT22;14839;48.106;11.618;2023-09-30T17:29:14;17.80;88.40
27368;DHT22;14839;48.106;11.618;2023-09-30T17:31:39;17.70;88.60
27368;DHT22;14839;48.106;11.618;2023-09-30T17:34:05;17.70;88.70
27368;DHT22;14839;48.106;11.618;2023-09-30T17:36:31;17.60;88.90
27368;DHT22;14839;48.106;11.618;2023-09-30T17:38:56;17.50;89.50
27368;DHT22;14839;48.106;11.618;2023-09-30T17:41:23;17.50;90.10
27368;DHT22;14839;48.106;11.618;2023-09-30T17:43:48;17.40;90.20
27368;DHT22;14839;48.106;11.618;2023-09-30T17:46:16;17.30;90.20
27368;DHT22;14839;48.106;11.618;2023-09-30T17:48:45;17.30;90.30
27368;DHT22;14839;48.106;11.618;2023-09-30T17:51:16;17.30;90.50
27368;DHT22;14839;48.106;11.618;2023-09-30T17:53:50;17.20;90.80
27368;DHT22;14839;48.106;11.618;2023-09-30T17:56:16;17.10;91.10
27368;DHT22;14839;48.106;11.618;2023-09-30T17:58:43;17.10;91.20
27368;DHT22;14839;48.106;11.618;2023-09-30T18:01:08;17.00;91.50
27368;DHT22;14839;48.106;11.618;2023-09-30T18:03:34;17.00;91.90
27368;DHT22;14839;48.106;11.618;2023-09-30T18:06:07;16.90;92.00
27368;DHT22;14839;48.106;11.618;2023-09-30T18:08:36;16.90;92.40
27368;DHT22;14839;48.106;11.618;2023-09-30T18:11:02;16.90;92.50
27368;DHT22;14839;48.106;11.618;2023-09-30T18:13:30;16.80;92.40
27368;DHT22;14839;48.106;11.618;2023-09-30T18:15:59;16.80;92.60
27368;DHT22;14839;48.106;11.618;2023-09-30T18:18:25;16.70;92.90
27368;DHT22;14839;48.106;11.618;2023-09-30T18:20:51;16.60;93.20
27368;DHT22;14839;48.106;11.618;2023-09-30T18:23:16;16.60;93.20
27368;DHT22;14839;48.106;11.618;2023-09-30T18:25:42;16.60;93.60
27368;DHT22;14839;48.106;11.618;2023-09-30T18:28:10;16.50;93.90
27368;DHT22;14839;48.106;11.618;2023-09-30T18:30:38;16.50;94.00
27368;DHT22;14839;48.106;11.618;2023-09-30T18:33:05;16.50;94.00
27368;DHT22;14839;48.106;11.618;2023-09-30T18:35:32;16.50;94.20
27368;DHT22;14839;48.106;11.618;2023-09-30T18:37:58;16.50;94.40
27368;DHT22;14839;48.106;11.618;2023-09-30T18:40:23;16.40;94.50
27368;DHT22;14839;48.106;11.618;2023-09-30T18:42:49;16.40;94.60
27368;DHT22;14839;48.106;11.618;2023-09-30T18:45:15;16.30;94.60
27368;DHT22;14839;48.106;11.618;2023-09-30T18:47:40;16.30;94.60
27368;DHT22;14839;48.106;11.618;2023-09-30T18:50:06;16.20;94.60
27368;DHT22;14839;48.106;11.618;2023-09-30T18:52:32;16.20;94.60
27368;DHT22;14839;48.106;11.618;2023-09-30T18:54:57;16.10;94.60
27368;DHT22;14839;48.106;11.618;2023-09-30T18:57:23;16.00;94.60
27368;DHT22;14839;48.106;11.618;2023-09-30T18:59:48;16.00;94.60
27368;DHT22;14839;48.106;11.618;2023-09-30T19:02:14;15.90;94.60
27368;DHT22;14839;48.106;11.618;2023-09-30T19:04:40;15.90;94.60
27368;DHT22;14839;48.106;11.618;2023-09-30T19:07:05;15.80;94.60
27368;DHT22;14839;48.106;11.618;2023-09-30T19:09:31;15.80;94.60
27368;DHT22;14839;48.106;11.618;2023-09-30T19:11:57;15.80;94.60
27368;DHT22;14839;48.106;11.618;2023-09-30T19:14:23;15.80;94.60
27368;DHT22;14839;48.106;11.618;2023-09-30T19:16:49;15.80;94.60
27368;DHT22;14839;48.106;11.618;2023-09-30T19:19:16;15.80;94.60
27368;DHT22;14839;48.106;11.618;2023-09-30T19:21:45;15.80;94.60
27368;DHT22;14839;48.106;11.618;2023-09-30T19:24:11;15.80;94.60
27368;DHT22;14839;48.106;11.618;2023-09-30T19:26:37;15.70;94.60
27368;DHT22;14839;48.106;11.618;2023-09-30T19:29:03;15.70;94.60